Date,TemperatureHighF,TemperatureAvgF,TemperatureLowF,DewpointHighF,DewpointAvgF,DewpointLowF,HumidityHigh,HumidityAvg,HumidityLow,PressureMaxIn,PressureMinIn,WindSpeedMaxMPH,WindSpeedAvgMPH,GustSpeedMaxMPH,PrecipitationSumIn
2013-11-1,46.0,42.5,38.2,44.5,41.2,38.2,100,95,85,29.75,29.33,12,4,0,0.04
2013-11-2,44.6,38.3,30.2,40.2,35.8,28.8,100,92,65,30.10,29.74,9,2,0,0.00
2013-11-3,49.6,37.1,24.1,42.0,30.9,24.1,100,81,44,30.25,30.10,11,3,0,0.00
2013-11-4,51.7,47.3,40.9,47.8,38.3,33.8,96,71,55,30.16,29.98,17,6,0,0.00
2013-11-5,53.9,49.7,46.0,52.1,48.4,43.3,100,96,69,30.21,29.85,16,3,0,0.47
2013-11-6,54.4,41.7,30.1,54.4,37.7,22.9,100,87,58,30.11,29.68,16,6,0,0.35
2013-11-7,40.3,33.3,26.8,32.1,28.4,25.8,100,83,60,30.19,30.11,11,2,0,0.00
2013-11-8,46.0,35.4,21.5,35.5,28.5,21.5,100,78,51,30.25,29.77,18,5,0,0.00
2013-11-9,52.2,45.8,36.5,38.9,33.3,22.5,78,62,48,30.05,29.74,18,7,0,0.00
2013-11-10,48.2,41.3,35.9,30.1,26.5,20.5,71,56,39,30.29,30.05,12,5,0,0.00
2013-11-11,43.4,31.4,21.3,35.4,23.7,13.5,100,74,59,30.51,30.00,16,5,0,0.04
2013-11-12,29.2,21.8,16.1,16.4,13.8,9.4,90,72,47,30.68,30.50,11,4,0,0.00
2013-11-13,41.7,29.7,17.6,17.7,15.2,8.7,89,58,31,30.50,29.99,15,6,0,0.00
2013-11-14,47.1,39.4,31.7,32.8,23.8,17.2,73,54,40,30.00,29.86,14,5,0,0.00
2013-11-15,54.9,42.9,31.4,36.7,32.1,25.7,100,68,42,29.91,29.86,8,3,0,0.00
2013-11-16,57.4,47.5,36.2,56.6,47.1,35.2,100,99,95,29.87,29.47,19,9,0,0.08
2013-11-17,57.4,48.9,37.8,57.1,47.2,30.3,100,94,72,29.68,29.17,17,5,0,1.18
2013-11-18,37.8,32.6,24.5,31.6,24.4,20.0,90,72,54,30.21,29.67,21,7,0,0.00
2013-11-19,38.9,30.1,16.8,33.6,23.7,16.8,100,79,48,30.33,30.17,11,3,0,0.00
2013-11-20,39.0,35.3,31.6,36.0,29.9,24.4,100,82,57,30.19,30.04,18,8,0,0.00
2013-11-21,42.3,38.7,36.0,40.1,37.4,36.0,100,95,82,30.22,30.05,9,2,0,0.00
2013-11-22,36.9,29.5,21.3,36.4,23.5,15.3,100,79,52,30.44,30.20,11,4,0,0.00
2013-11-23,24.4,16.3,8.7,17.2,6.5,1.4,90,65,47,30.68,30.36,18,7,0,0.00
2013-11-24,27.0,17.2,5.8,10.6,5.0,-3.3,100,63,28,30.66,30.21,16,5,0,0.00
2013-11-25,30.0,25.9,21.3,27.5,20.4,7.3,100,81,47,30.21,29.98,16,6,0,0.00
2013-11-26,31.4,24.7,11.6,27.6,15.9,3.4,91,69,51,30.20,29.97,17,6,0,0.00
2013-11-27,25.1,17.4,9.0,14.0,9.0,3.9,91,70,48,30.26,30.15,13,4,0,0.00
2013-11-28,28.6,23.7,18.7,15.8,13.4,11.3,84,65,54,30.48,30.11,11,4,0,0.00
2013-11-29,30.6,21.7,7.1,22.1,15.8,6.2,100,80,51,30.59,30.29,9,3,0,0.00
2013-11-30,42.9,33.3,25.9,33.8,26.7,21.6,100,78,53,30.30,30.00,11,3,0,0.00